Time;durP1;ratioP1;P1;durP2;ratioP2;P2;SDS_P1;SDS_P2;PMS_P1;PMS_P2;Temp;Humidity;BMP_temperature;BMP_pressure;BME280_temperature;BME280_humidity;BME280_pressure;Samples;Min_cycle;Max_cycle;Signal;HPM_P1;HPM_P2
2022/03/09 00:00:13;;;;;;;15.95;5.38;;;1.60;74.80;;;;;;5033440;28;20230;-57
2022/03/09 00:02:40;;;;;;;6.25;4.22;;;1.60;75.00;;;;;;5033214;28;20214;-57
2022/03/09 00:05:08;;;;;;;5.60;4.05;;;1.60;75.10;;;;;;5032966;28;20253;-57
2022/03/09 00:07:37;;;;;;;8.13;4.15;;;1.60;75.40;;;;;;5033277;28;20206;-57
2022/03/09 00:10:05;;;;;;;7.55;4.50;;;1.60;75.70;;;;;;5032832;28;20222;-57
2022/03/09 00:12:32;;;;;;;6.03;4.43;;;1.60;76.00;;;;;;5033032;28;20203;-57
2022/03/09 00:14:59;;;;;;;4.20;3.80;;;1.50;76.40;;;;;;5033793;28;20219;-56
2022/03/09 00:17:26;;;;;;;4.20;3.80;;;1.50;76.80;;;;;;5033463;28;20221;-56
2022/03/09 00:19:53;;;;;;;5.95;3.92;;;1.50;76.80;;;;;;5033089;28;20229;-57
2022/03/09 00:22:20;;;;;;;5.72;3.33;;;1.50;76.80;;;;;;5033232;28;20210;-57
2022/03/09 00:24:49;;;;;;;7.07;3.83;;;1.40;76.80;;;;;;5035192;28;20201;-57
2022/03/09 00:27:16;;;;;;;5.63;4.28;;;1.40;76.90;;;;;;5038297;28;20214;-56
2022/03/09 00:29:43;;;;;;;7.30;5.78;;;1.40;77.00;;;;;;5038417;28;20237;-57
2022/03/09 00:32:11;;;;;;;6.45;4.78;;;1.30;77.30;;;;;;5038169;28;20198;-56
2022/03/09 00:34:38;;;;;;;8.40;4.55;;;1.30;77.60;;;;;;5038203;28;20218;-57
2022/03/09 00:37:05;;;;;;;7.00;4.55;;;1.20;77.80;;;;;;5039244;28;20205;-57
2022/03/09 00:39:33;;;;;;;5.78;4.85;;;1.20;78.30;;;;;;5038794;28;20237;-55
2022/03/09 00:42:01;;;;;;;6.95;4.78;;;1.10;78.70;;;;;;5039021;28;20674;-56
2022/03/09 00:44:28;;;;;;;6.70;4.22;;;1.10;79.20;;;;;;5037953;28;20199;-56
2022/03/09 00:46:55;;;;;;;6.65;5.07;;;1.10;79.60;;;;;;5037634;28;20205;-56
2022/03/09 00:49:22;;;;;;;7.57;4.70;;;1.10;80.00;;;;;;5038805;28;20222;-55
2022/03/09 00:51:49;;;;;;;5.70;4.78;;;1.10;80.30;;;;;;5039618;28;20207;-56
2022/03/09 00:54:16;;;;;;;7.20;4.10;;;1.10;80.40;;;;;;5038974;28;20230;-56
2022/03/09 00:56:43;;;;;;;5.05;4.10;;;1.10;79.90;;;;;;5039170;28;20205;-56
2022/03/09 00:59:12;;;;;;;5.25;4.32;;;1.10;79.90;;;;;;5039453;28;20222;-57
2022/03/09 01:01:39;;;;;;;7.65;4.00;;;1.10;80.20;;;;;;5037081;28;20206;-57
2022/03/09 01:04:06;;;;;;;7.90;5.25;;;1.00;80.50;;;;;;5036949;28;20277;-56
2022/03/09 01:06:33;;;;;;;5.72;4.28;;;1.00;80.90;;;;;;5036960;28;20209;-56
2022/03/09 01:09:01;;;;;;;5.80;4.40;;;1.00;81.10;;;;;;5037293;28;20245;-57
2022/03/09 01:11:28;;;;;;;5.53;4.32;;;1.00;81.40;;;;;;5037832;28;20203;-56
2022/03/09 01:13:55;;;;;;;5.60;4.45;;;0.90;81.60;;;;;;5037016;28;20230;-57
2022/03/09 01:16:24;;;;;;;9.82;4.53;;;0.90;81.70;;;;;;5036462;28;20623;-56
2022/03/09 01:18:51;;;;;;;6.28;4.25;;;0.90;81.90;;;;;;5036423;28;20250;-57
2022/03/09 01:21:18;;;;;;;5.57;4.13;;;0.90;82.20;;;;;;5036421;28;20206;-56
2022/03/09 01:23:45;;;;;;;5.70;4.45;;;0.90;82.70;;;;;;5036603;28;20225;-56
2022/03/09 01:26:12;;;;;;;5.72;4.47;;;0.90;82.80;;;;;;5036641;28;20206;-57
2022/03/09 01:28:39;;;;;;;4.93;4.43;;;0.90;82.70;;;;;;5036101;28;20203;-57
2022/03/09 01:31:06;;;;;;;9.10;4.22;;;0.90;83.50;;;;;;5036307;28;20191;-56
2022/03/09 01:33:35;;;;;;;4.18;3.78;;;0.90;83.00;;;;;;5036399;28;20202;-56
2022/03/09 01:36:02;;;;;;;5.43;4.10;;;0.90;82.80;;;;;;5035527;28;20270;-57
2022/03/09 01:38:29;;;;;;;5.35;4.50;;;0.90;82.70;;;;;;5036017;28;20202;-57
2022/03/09 01:40:56;;;;;;;4.88;4.38;;;0.90;82.70;;;;;;5036340;28;20210;-57
2022/03/09 01:43:23;;;;;;;5.47;3.90;;;0.90;82.90;;;;;;5036411;28;20202;-57
2022/03/09 01:45:50;;;;;;;4.03;3.63;;;0.80;83.10;;;;;;5035768;28;20198;-57
2022/03/09 01:48:17;;;;;;;8.35;4.45;;;0.80;83.20;;;;;;5035865;28;20209;-56
2022/03/09 01:50:47;;;;;;;4.82;4.32;;;0.80;83.40;;;;;;5035748;28;20714;-56
2022/03/09 01:53:14;;;;;;;4.57;4.00;;;0.80;83.70;;;;;;5036011;28;20568;-57
2022/03/09 01:55:41;;;;;;;5.40;4.68;;;0.70;83.90;;;;;;5036001;28;20717;-56
2022/03/09 01:58:08;;;;;;;4.93;4.25;;;0.70;84.00;;;;;;5036154;28;20605;-56
2022/03/09 02:00:35;;;;;;;4.43;3.85;;;0.70;84.40;;;;;;5035732;28;20222;-56
2022/03/09 02:03:03;;;;;;;4.78;4.07;;;0.70;84.70;;;;;;5035920;28;20213;-57
2022/03/09 02:05:30;;;;;;;5.55;3.97;;;0.70;84.70;;;;;;5035896;28;20209;-57
2022/03/09 02:10:43;;;;;;;4.50;3.67;;;0.60;85.00;;;;;;5036067;28;20229;-56
2022/03/09 02:13:10;;;;;;;7.57;4.50;;;0.60;85.30;;;;;;5035908;28;20202;-58
2022/03/09 02:15:37;;;;;;;6.53;4.95;;;0.60;85.60;;;;;;5035340;28;20226;-56
2022/03/09 02:18:05;;;;;;;4.57;4.18;;;0.60;85.80;;;;;;5035378;28;20209;-56
2022/03/09 02:20:34;;;;;;;7.13;4.95;;;0.60;85.90;;;;;;5035124;28;20226;-57
2022/03/09 02:23:03;;;;;;;5.05;4.15;;;0.60;86.00;;;;;;5035407;28;20226;-56
2022/03/09 02:25:30;;;;;;;4.85;4.13;;;0.60;86.00;;;;;;5035116;28;20249;-56
2022/03/09 02:27:57;;;;;;;6.03;4.15;;;0.60;86.00;;;;;;5035346;28;20209;-56
2022/03/09 02:30:24;;;;;;;4.55;4.00;;;0.60;86.10;;;;;;5034878;28;20234;-56
2022/03/09 02:32:51;;;;;;;6.90;4.32;;;0.60;86.10;;;;;;5035041;28;20199;-56
2022/03/09 02:35:20;;;;;;;4.85;3.90;;;0.60;86.20;;;;;;5035024;28;20226;-56
2022/03/09 02:37:47;;;;;;;7.10;4.97;;;0.60;86.30;;;;;;5035289;28;20202;-56
2022/03/09 02:40:17;;;;;;;4.93;4.10;;;0.60;86.70;;;;;;5035143;28;20227;-56
2022/03/09 02:42:44;;;;;;;4.90;4.40;;;0.60;86.80;;;;;;5035618;28;20202;-58
2022/03/09 02:45:12;;;;;;;5.45;4.43;;;0.50;86.80;;;;;;5035385;28;20205;-57
2022/03/09 02:47:41;;;;;;;6.55;4.22;;;0.60;86.90;;;;;;5034103;28;20215;-57
2022/03/09 02:50:09;;;;;;;8.85;5.13;;;0.60;86.80;;;;;;5034673;28;20261;-57
2022/03/09 02:52:39;;;;;;;6.13;4.60;;;0.50;86.70;;;;;;5034543;28;20202;-56
2022/03/09 02:55:06;;;;;;;6.00;4.13;;;0.50;86.90;;;;;;5034515;28;20249;-56
2022/03/09 02:57:35;;;;;;;5.13;3.95;;;0.50;86.80;;;;;;5036020;28;20245;-60
2022/03/09 03:00:03;;;;;;;5.15;4.07;;;0.50;86.80;;;;;;5034465;28;20229;-59
2022/03/09 03:02:30;;;;;;;6.88;4.22;;;0.50;86.80;;;;;;5034558;28;20217;-59
2022/03/09 03:04:57;;;;;;;5.88;3.70;;;0.50;86.70;;;;;;5034571;28;20206;-59
2022/03/09 03:07:24;;;;;;;7.55;4.60;;;0.50;86.80;;;;;;5034383;28;20225;-59
2022/03/09 03:09:51;;;;;;;5.10;4.15;;;0.50;86.50;;;;;;5034656;28;20227;-59
2022/03/09 03:12:18;;;;;;;5.93;4.45;;;0.50;86.50;;;;;;5034446;28;20207;-59
2022/03/09 03:14:47;;;;;;;5.25;4.35;;;0.40;86.50;;;;;;5034640;28;20230;-59
2022/03/09 03:17:14;;;;;;;6.47;4.55;;;0.40;86.80;;;;;;5034100;28;20203;-59
2022/03/09 03:19:41;;;;;;;5.20;4.47;;;0.40;87.10;;;;;;5034060;28;20222;-58
2022/03/09 03:22:08;;;;;;;5.88;4.82;;;0.40;87.30;;;;;;5034280;28;20206;-59
2022/03/09 03:24:35;;;;;;;7.60;4.80;;;0.30;87.40;;;;;;5034092;28;20210;-59
2022/03/09 03:27:02;;;;;;;6.55;4.78;;;0.30;87.50;;;;;;5033638;28;20209;-59
2022/03/09 03:29:29;;;;;;;5.32;4.75;;;0.30;87.70;;;;;;5033453;28;20260;-59
2022/03/09 03:31:58;;;;;;;5.60;4.80;;;0.30;87.90;;;;;;5033869;28;20198;-59
2022/03/09 03:34:25;;;;;;;8.00;5.28;;;0.30;87.80;;;;;;5034221;28;20233;-58
2022/03/09 03:36:52;;;;;;;5.60;4.50;;;0.20;87.90;;;;;;5035056;28;20202;-59
2022/03/09 03:39:19;;;;;;;6.82;4.85;;;0.20;88.30;;;;;;5034353;28;20223;-59
2022/03/09 03:41:46;;;;;;;6.95;4.55;;;0.20;88.60;;;;;;5037099;28;20229;-58
2022/03/09 03:44:13;;;;;;;5.85;5.18;;;0.20;88.40;;;;;;5035815;28;20217;-58
2022/03/09 03:46:41;;;;;;;5.68;4.00;;;0.20;88.20;;;;;;5036411;28;20210;-58
2022/03/09 03:49:09;;;;;;;7.20;4.35;;;0.10;88.40;;;;;;5036196;28;20253;-58
2022/03/09 03:51:36;;;;;;;5.45;4.72;;;0.10;89.10;;;;;;5035966;28;20202;-58
2022/03/09 03:54:03;;;;;;;6.53;4.15;;;0.10;89.10;;;;;;5036109;28;20210;-60
2022/03/09 03:56:31;;;;;;;7.43;5.90;;;0.10;89.10;;;;;;5035387;28;20222;-59
2022/03/09 03:58:58;;;;;;;15.10;6.50;;;0.00;89.40;;;;;;5035032;28;20577;-59
2022/03/09 04:01:25;;;;;;;7.30;6.60;;;0.00;89.70;;;;;;5036392;28;20213;-56
2022/03/09 04:03:52;;;;;;;7.53;6.25;;;0.00;90.00;;;;;;5036237;28;20554;-57
2022/03/09 04:09:25;;;;;;;8.23;6.35;;;-0.10;89.70;;;;;;5091821;27;20557;-59
2022/03/09 04:11:52;;;;;;;8.25;5.32;;;-0.10;90.00;;;;;;5090904;28;20207;-59
2022/03/09 04:14:22;;;;;;;7.40;5.13;;;-0.10;90.20;;;;;;5091072;28;20195;-60
2022/03/09 04:16:49;;;;;;;5.55;5.05;;;-0.10;90.50;;;;;;5091302;28;20572;-58
2022/03/09 04:19:16;;;;;;;5.80;5.00;;;-0.10;90.60;;;;;;5090747;28;20231;-59
2022/03/09 04:21:43;;;;;;;5.38;4.60;;;-0.10;90.60;;;;;;5087205;22;20230;-58
2022/03/09 04:24:11;;;;;;;5.25;4.18;;;-0.10;90.80;;;;;;5051005;28;20201;-59
2022/03/09 04:26:39;;;;;;;5.85;4.40;;;-0.20;90.90;;;;;;5051241;28;20205;-58
2022/03/09 04:29:06;;;;;;;7.18;4.68;;;-0.20;91.10;;;;;;5050743;28;20225;-58
2022/03/09 04:31:33;;;;;;;6.88;4.30;;;-0.20;91.30;;;;;;5050761;28;20222;-59
2022/03/09 04:34:00;;;;;;;6.93;5.55;;;-0.20;91.40;;;;;;5050892;28;20206;-59
2022/03/09 04:36:28;;;;;;;6.75;5.63;;;-0.20;91.60;;;;;;5050772;28;20225;-59
2022/03/09 04:38:55;;;;;;;5.72;4.40;;;-0.20;91.60;;;;;;5050743;28;20202;-60
2022/03/09 04:41:22;;;;;;;5.47;4.70;;;-0.20;91.80;;;;;;5050273;28;20232;-58
2022/03/09 04:43:50;;;;;;;5.60;4.75;;;-0.20;92.10;;;;;;5050584;28;20209;-58
2022/03/09 04:46:18;;;;;;;6.60;5.18;;;-0.20;91.90;;;;;;5050139;28;20205;-59
2022/03/09 04:48:45;;;;;;;7.18;5.20;;;-0.20;92.00;;;;;;5050173;28;20228;-58
2022/03/09 04:51:12;;;;;;;5.40;4.90;;;-0.20;92.00;;;;;;5050492;28;20222;-58
2022/03/09 04:53:39;;;;;;;7.95;5.07;;;-0.20;92.10;;;;;;5050286;28;20201;-58
2022/03/09 04:56:06;;;;;;;6.03;5.32;;;-0.20;92.10;;;;;;5053712;28;20622;-60
2022/03/09 04:58:33;;;;;;;6.82;5.35;;;-0.20;92.10;;;;;;5054632;28;20193;-60
2022/03/09 05:01:02;;;;;;;6.93;5.78;;;-0.20;92.30;;;;;;5053284;28;20718;-58
2022/03/09 05:03:30;;;;;;;7.90;5.05;;;-0.20;92.40;;;;;;5051330;28;20206;-58
2022/03/09 05:05:58;;;;;;;5.75;5.05;;;-0.20;92.50;;;;;;5049389;28;20202;-58
2022/03/09 05:08:25;;;;;;;5.93;5.20;;;-0.20;92.50;;;;;;5049391;28;20228;-58
2022/03/09 05:10:52;;;;;;;11.05;5.63;;;-0.20;92.60;;;;;;5049702;28;20229;-58
2022/03/09 05:13:20;;;;;;;5.78;4.40;;;-0.20;92.60;;;;;;5049837;28;20607;-58
2022/03/09 05:15:47;;;;;;;8.57;5.63;;;-0.20;92.60;;;;;;5049531;28;20288;-58
2022/03/09 05:18:15;;;;;;;7.15;4.90;;;-0.20;92.60;;;;;;5049546;28;20198;-59
2022/03/09 05:20:43;;;;;;;6.72;6.03;;;-0.20;92.70;;;;;;5035961;28;20234;-58
2022/03/09 05:23:10;;;;;;;9.82;5.55;;;-0.20;92.80;;;;;;5036137;28;20214;-58
2022/03/09 05:25:37;;;;;;;5.55;5.03;;;-0.20;92.80;;;;;;5035763;28;20210;-57
2022/03/09 05:28:04;;;;;;;7.05;4.57;;;-0.20;92.90;;;;;;5036106;28;20230;-58
2022/03/09 05:30:31;;;;;;;7.78;5.00;;;-0.20;92.90;;;;;;5036231;28;20284;-58
2022/03/09 05:32:58;;;;;;;8.77;5.10;;;-0.20;92.90;;;;;;5035659;28;20203;-59
2022/03/09 05:35:27;;;;;;;7.45;5.53;;;-0.20;92.90;;;;;;5036050;28;20202;-58
2022/03/09 05:37:54;;;;;;;6.30;5.68;;;-0.20;92.90;;;;;;5037547;28;20198;-58
2022/03/09 05:40:21;;;;;;;7.32;5.00;;;-0.20;92.90;;;;;;5043062;28;20198;-59
2022/03/09 05:42:48;;;;;;;7.97;5.72;;;-0.20;92.90;;;;;;5042689;28;20213;-57
2022/03/09 05:45:15;;;;;;;7.38;5.40;;;-0.20;92.90;;;;;;5044196;28;20202;-59
2022/03/09 05:47:42;;;;;;;6.57;4.88;;;-0.20;92.90;;;;;;5041994;28;20207;-57
2022/03/09 05:50:10;;;;;;;6.95;5.53;;;-0.20;93.00;;;;;;5036333;28;20202;-58
2022/03/09 05:52:38;;;;;;;6.47;4.80;;;-0.20;92.90;;;;;;5035477;28;20218;-58
2022/03/09 05:55:06;;;;;;;7.43;5.03;;;-0.10;93.00;;;;;;5035971;28;20211;-58
2022/03/09 05:57:33;;;;;;;9.40;4.90;;;-0.10;93.10;;;;;;5036296;28;20206;-58
2022/03/09 06:00:03;;;;;;;9.02;5.75;;;-0.10;93.10;;;;;;5036143;28;20210;-58
2022/03/09 06:02:30;;;;;;;5.28;4.78;;;0.00;93.10;;;;;;5046077;28;20213;-58
2022/03/09 06:04:57;;;;;;;9.32;5.63;;;0.00;93.10;;;;;;5049496;28;20202;-58
2022/03/09 06:07:24;;;;;;;18.55;7.15;;;0.00;93.10;;;;;;5047168;28;20237;-57
2022/03/09 06:09:53;;;;;;;7.18;5.80;;;0.00;93.10;;;;;;5038157;28;20227;-58
2022/03/09 06:12:20;;;;;;;6.68;5.70;;;0.00;93.10;;;;;;5036363;28;20218;-58
2022/03/09 06:14:47;;;;;;;6.88;5.55;;;0.10;93.20;;;;;;5035368;28;20301;-58
2022/03/09 06:17:14;;;;;;;6.00;5.30;;;0.10;93.20;;;;;;5035531;28;20696;-58
2022/03/09 06:19:41;;;;;;;7.60;5.57;;;0.20;93.20;;;;;;5036431;28;20714;-58
2022/03/09 06:22:09;;;;;;;5.80;5.13;;;0.30;93.10;;;;;;5035718;28;20266;-58
2022/03/09 06:24:36;;;;;;;8.05;6.10;;;0.30;93.00;;;;;;5036662;28;20203;-59
2022/03/09 06:27:05;;;;;;;7.63;5.65;;;0.40;93.10;;;;;;5035669;28;20696;-58
2022/03/09 06:29:32;;;;;;;6.25;5.38;;;0.40;93.00;;;;;;5036075;28;20222;-58
2022/03/09 06:32:00;;;;;;;8.15;5.85;;;0.50;93.10;;;;;;5034660;28;20301;-58
2022/03/09 06:34:28;;;;;;;7.03;5.60;;;0.60;93.00;;;;;;5034989;28;20221;-58
2022/03/09 06:36:55;;;;;;;9.20;6.28;;;0.60;93.00;;;;;;5035159;28;20294;-59
2022/03/09 06:39:24;;;;;;;12.25;6.72;;;0.70;92.90;;;;;;5035092;28;20204;-57
2022/03/09 06:41:51;;;;;;;8.73;6.25;;;0.80;92.70;;;;;;5035539;28;20257;-60
2022/03/09 06:44:19;;;;;;;8.98;6.05;;;0.90;92.50;;;;;;5035262;28;20285;-58
2022/03/09 06:46:47;;;;;;;8.60;6.40;;;0.90;92.20;;;;;;5035188;28;20289;-58
2022/03/09 06:49:14;;;;;;;10.38;6.22;;;1.00;92.10;;;;;;5034911;28;20782;-58
2022/03/09 06:51:41;;;;;;;9.40;6.45;;;1.10;92.00;;;;;;5034648;28;20774;-57
2022/03/09 06:54:08;;;;;;;6.72;5.70;;;1.10;91.90;;;;;;5034561;28;20224;-58
2022/03/09 06:56:37;;;;;;;9.15;6.38;;;1.20;91.90;;;;;;5035637;28;20289;-59
2022/03/09 06:59:05;;;;;;;9.23;6.20;;;1.30;91.80;;;;;;5036464;28;20245;-60
2022/03/09 07:01:33;;;;;;;8.35;5.80;;;1.40;91.60;;;;;;5036207;28;20230;-59
2022/03/09 07:04:00;;;;;;;8.43;6.10;;;1.40;91.40;;;;;;5035831;28;20579;-59
2022/03/09 07:06:28;;;;;;;8.05;5.90;;;1.50;91.60;;;;;;5036319;28;20234;-60
2022/03/09 07:08:55;;;;;;;8.68;6.35;;;1.60;91.10;;;;;;5036515;28;20225;-59
2022/03/09 07:11:22;;;;;;;7.35;6.65;;;1.70;90.80;;;;;;5038449;28;20230;-58
2022/03/09 07:13:49;;;;;;;8.73;6.60;;;1.80;90.60;;;;;;5041589;28;20222;-58
2022/03/09 07:16:17;;;;;;;7.70;5.80;;;2.00;90.40;;;;;;5040839;28;20223;-58
2022/03/09 07:18:45;;;;;;;7.85;5.68;;;2.10;90.10;;;;;;5040196;28;20266;-59
2022/03/09 07:21:13;;;;;;;9.00;6.25;;;2.20;89.60;;;;;;5040681;28;20272;-59
2022/03/09 07:23:40;;;;;;;9.45;6.30;;;2.30;88.90;;;;;;5040895;28;20267;-58
2022/03/09 07:26:09;;;;;;;7.93;6.20;;;2.50;88.10;;;;;;5043774;28;20266;-59
2022/03/09 07:28:36;;;;;;;11.77;5.65;;;2.60;87.30;;;;;;5040377;28;20305;-59
2022/03/09 07:31:03;;;;;;;9.80;6.22;;;2.70;86.70;;;;;;5036500;28;20222;-58
2022/03/09 07:33:30;;;;;;;6.72;6.03;;;2.80;85.90;;;;;;5034558;28;20202;-59
2022/03/09 07:36:00;;;;;;;8.10;5.80;;;2.90;85.20;;;;;;5034740;28;20206;-59
2022/03/09 07:38:27;;;;;;;7.50;5.68;;;3.10;84.50;;;;;;5033692;28;20207;-57
2022/03/09 07:40:54;;;;;;;8.27;6.40;;;3.20;83.60;;;;;;5033828;28;20301;-59
2022/03/09 07:43:21;;;;;;;10.32;6.00;;;3.30;83.00;;;;;;5034148;28;20206;-59
2022/03/09 07:45:48;;;;;;;9.05;6.45;;;3.50;82.30;;;;;;5033789;28;20207;-59
2022/03/09 07:48:16;;;;;;;8.25;5.80;;;3.60;81.40;;;;;;5033635;28;20206;-59
2022/03/09 07:50:43;;;;;;;9.55;6.40;;;3.70;80.60;;;;;;5032889;28;20718;-59
2022/03/09 07:53:12;;;;;;;8.18;6.63;;;3.90;79.70;;;;;;5033788;28;20300;-58
2022/03/09 07:55:39;;;;;;;9.70;5.43;;;4.00;78.90;;;;;;5033509;28;20264;-59
2022/03/09 07:58:06;;;;;;;7.20;6.20;;;4.10;78.30;;;;;;5033591;28;20221;-59
2022/03/09 08:00:34;;;;;;;8.98;6.05;;;4.20;77.40;;;;;;5033423;28;20226;-58
2022/03/09 08:03:01;;;;;;;7.10;5.60;;;4.30;76.60;;;;;;5034099;28;20206;-58
2022/03/09 08:05:28;;;;;;;11.35;6.00;;;4.50;75.80;;;;;;5033459;28;20213;-56
2022/03/09 08:07:55;;;;;;;8.98;6.55;;;4.60;74.80;;;;;;5034484;28;20665;-59
2022/03/09 08:10:24;;;;;;;10.45;6.15;;;4.70;73.90;;;;;;5033885;28;20226;-59
2022/03/09 08:12:51;;;;;;;10.43;7.18;;;4.80;73.10;;;;;;5034259;28;20206;-57
2022/03/09 08:15:18;;;;;;;8.05;6.78;;;4.90;72.40;;;;;;5034100;28;20210;-57
2022/03/09 08:17:46;;;;;;;10.75;6.70;;;5.00;71.60;;;;;;5033972;28;20202;-59
2022/03/09 08:20:13;;;;;;;16.38;7.93;;;5.20;70.70;;;;;;5034126;28;20285;-59
2022/03/09 08:22:41;;;;;;;9.05;6.20;;;5.30;70.00;;;;;;5033864;28;20179;-58
2022/03/09 08:25:09;;;;;;;9.35;6.50;;;5.40;69.30;;;;;;5033253;28;20701;-59
2022/03/09 08:27:38;;;;;;;9.98;7.32;;;5.60;68.70;;;;;;5045245;28;20214;-59
2022/03/09 08:30:06;;;;;;;10.15;6.97;;;5.70;67.40;;;;;;5046007;28;20218;-60
2022/03/09 08:32:34;;;;;;;9.60;6.05;;;5.80;66.30;;;;;;5040960;28;20207;-57
2022/03/09 08:35:01;;;;;;;9.32;6.75;;;6.00;65.10;;;;;;5039003;28;20202;-59
2022/03/09 08:37:28;;;;;;;6.43;5.75;;;6.10;64.10;;;;;;5035910;28;20210;-59
2022/03/09 08:39:55;;;;;;;8.30;6.60;;;6.20;63.20;;;;;;5034284;28;20596;-59
2022/03/09 08:42:22;;;;;;;9.15;6.25;;;6.30;62.50;;;;;;5033510;28;20254;-59
2022/03/09 08:44:51;;;;;;;11.27;7.20;;;6.40;61.70;;;;;;5034259;28;20224;-58
2022/03/09 08:47:18;;;;;;;7.45;6.55;;;6.60;61.00;;;;;;5035102;28;20749;-58
2022/03/09 08:49:45;;;;;;;8.02;6.20;;;6.70;60.10;;;;;;5033551;28;20233;-58
2022/03/09 08:52:13;;;;;;;8.60;6.30;;;6.80;59.30;;;;;;5033210;28;20226;-58
2022/03/09 08:54:41;;;;;;;6.95;5.70;;;6.90;58.50;;;;;;5034826;28;20198;-56
2022/03/09 08:57:08;;;;;;;8.25;6.22;;;7.10;57.90;;;;;;5037094;28;20237;-59
2022/03/09 08:59:36;;;;;;;8.25;5.70;;;7.20;57.10;;;;;;5037481;28;20252;-59
2022/03/09 09:02:05;;;;;;;7.18;5.68;;;7.30;56.50;;;;;;5037235;28;20245;-57
2022/03/09 09:04:32;;;;;;;8.25;6.72;;;7.50;56.00;;;;;;5037595;28;20655;-58
2022/03/09 09:06:59;;;;;;;8.73;6.63;;;7.60;55.60;;;;;;5037236;28;20202;-59
2022/03/09 09:09:26;;;;;;;8.25;6.40;;;7.80;55.10;;;;;;5036700;28;20240;-59
2022/03/09 09:11:54;;;;;;;10.00;6.70;;;7.90;54.60;;;;;;5036610;28;20223;-59
2022/03/09 09:14:21;;;;;;;9.43;6.30;;;8.10;53.90;;;;;;5036688;28;20256;-58
2022/03/09 09:16:49;;;;;;;9.70;6.63;;;8.20;53.90;;;;;;5036333;28;20300;-58
2022/03/09 09:19:17;;;;;;;10.27;6.47;;;8.30;52.90;;;;;;5036202;28;20754;-59
2022/03/09 09:21:45;;;;;;;8.38;6.50;;;8.30;52.60;;;;;;5036069;28;20226;-58
2022/03/09 09:24:12;;;;;;;9.43;6.53;;;8.50;52.30;;;;;;5036678;28;20214;-58
2022/03/09 09:26:39;;;;;;;10.73;7.20;;;8.70;51.80;;;;;;5036289;28;20234;-60
2022/03/09 09:29:06;;;;;;;8.82;6.75;;;8.80;51.20;;;;;;5036178;28;20600;-59
2022/03/09 09:31:34;;;;;;;9.68;6.88;;;8.90;50.60;;;;;;5035959;28;20450;-59
2022/03/09 09:34:02;;;;;;;7.05;6.32;;;9.00;50.00;;;;;;5036302;28;20205;-59
2022/03/09 09:36:30;;;;;;;7.83;6.23;;;9.00;49.20;;;;;;5036261;28;20213;-60
2022/03/09 09:38:57;;;;;;;8.60;6.68;;;9.10;48.90;;;;;;5036258;28;20441;-59
2022/03/09 09:41:26;;;;;;;6.13;5.40;;;9.20;48.90;;;;;;5036282;28;20226;-59
2022/03/09 09:43:53;;;;;;;7.82;5.93;;;9.40;48.60;;;;;;5038053;28;20688;-59
2022/03/09 09:46:21;;;;;;;9.60;6.30;;;9.50;48.30;;;;;;5037885;28;20206;-59
2022/03/09 09:48:48;;;;;;;8.37;7.00;;;9.70;48.10;;;;;;5037646;28;20457;-59
2022/03/09 09:51:16;;;;;;;7.60;6.47;;;9.80;47.80;;;;;;5038429;28;20477;-58
2022/03/09 09:53:46;;;;;;;7.87;6.70;;;10.00;46.50;;;;;;5038179;28;20922;-58
2022/03/09 09:56:14;;;;;;;6.67;5.90;;;10.20;46.20;;;;;;5039225;28;20548;-58
2022/03/09 09:58:42;;;;;;;7.43;5.80;;;10.20;45.80;;;;;;5037419;28;20457;-58
2022/03/09 10:01:10;;;;;;;6.83;5.77;;;10.30;45.80;;;;;;5037020;28;20926;-59
2022/03/09 10:03:37;;;;;;;10.00;6.80;;;10.40;45.60;;;;;;5037668;28;20539;-58
2022/03/09 10:06:04;;;;;;;8.90;6.70;;;10.50;45.10;;;;;;5035963;28;20449;-58
2022/03/09 10:08:32;;;;;;;7.87;6.10;;;10.60;44.80;;;;;;5036081;28;20453;-58
2022/03/09 10:11:01;;;;;;;8.20;6.87;;;10.70;44.60;;;;;;5036179;28;20481;-57
2022/03/09 10:13:30;;;;;;;10.37;8.27;;;10.80;44.10;;;;;;5036695;28;20499;-60
2022/03/09 10:16:16;;;;;;;7.87;6.47;;;10.80;43.70;;;;;;5036047;28;20453;-59
2022/03/09 10:18:50;;;;;;;8.70;5.80;;;10.90;43.40;;;;;;5039103;28;20457;-60
2022/03/09 10:21:19;;;;;;;9.47;6.30;;;10.90;43.00;;;;;;5036332;28;20492;-59
2022/03/09 10:23:55;;;;;;;8.03;6.03;;;11.00;42.90;;;;;;5036376;28;20457;-60
2022/03/09 10:26:26;;;;;;;7.20;6.50;;;11.10;42.80;;;;;;5037338;28;20487;-60
2022/03/09 10:29:05;;;;;;;8.57;6.50;;;11.20;42.60;;;;;;5050154;22;20519;-56
2022/03/09 10:31:34;;;;;;;11.27;7.70;;;11.30;42.20;;;;;;5034394;28;20452;-56
2022/03/09 10:34:15;;;;;;;8.27;6.50;;;11.40;42.20;;;;;;5034381;28;20464;-57
2022/03/09 10:36:55;;;;;;;7.33;6.53;;;11.50;42.10;;;;;;5034254;28;20503;-57
2022/03/09 10:39:24;;;;;;;7.07;6.10;;;11.60;42.00;;;;;;5034303;28;20469;-57
2022/03/09 10:41:53;;;;;;;7.60;6.37;;;11.70;41.80;;;;;;5035018;28;20795;-56
2022/03/09 10:44:20;;;;;;;7.43;6.10;;;11.80;41.20;;;;;;5034008;28;20541;-56
2022/03/09 10:46:49;;;;;;;8.67;6.07;;;11.80;40.70;;;;;;5034370;28;20481;-58
2022/03/09 10:49:19;;;;;;;9.57;5.95;;;11.80;40.40;;;;;;5033587;28;20445;-57
2022/03/09 10:51:49;;;;;;;8.50;6.03;;;11.70;39.90;;;;;;5034523;28;20218;-57
2022/03/09 10:54:23;;;;;;;8.20;6.27;;;11.90;40.10;;;;;;5033900;28;20468;-54
2022/03/09 10:57:03;;;;;;;7.83;7.10;;;11.90;40.00;;;;;;5034035;28;20445;-56
2022/03/09 10:59:44;;;;;;;8.10;6.50;;;12.00;39.70;;;;;;5033634;28;20524;-56
2022/03/09 11:02:12;;;;;;;9.17;6.30;;;12.00;39.60;;;;;;5034204;28;20450;-57
2022/03/09 11:04:40;;;;;;;7.23;5.70;;;12.00;39.50;;;;;;5033876;28;20437;-58
2022/03/09 11:07:09;;;;;;;7.87;6.27;;;12.10;39.20;;;;;;5033727;28;20476;-59
2022/03/09 11:09:37;;;;;;;7.50;5.67;;;12.30;39.10;;;;;;5033918;28;20519;-57
2022/03/09 11:12:06;;;;;;;8.90;6.30;;;12.40;38.80;;;;;;5033488;28;20452;-58
2022/03/09 11:14:35;;;;;;;8.68;6.13;;;12.50;38.40;;;;;;5033195;28;20928;-58
2022/03/09 11:17:02;;;;;;;7.28;6.18;;;12.60;36.90;;;;;;5032309;28;20520;-58
2022/03/09 11:19:29;;;;;;;21.63;8.60;;;12.50;36.90;;;;;;5032908;28;20215;-58
2022/03/09 11:21:57;;;;;;;8.80;7.90;;;12.50;37.00;;;;;;5033177;28;20453;-59
2022/03/09 11:24:26;;;;;;;7.85;6.97;;;12.50;36.80;;;;;;5032611;28;20456;-56
2022/03/09 11:26:56;;;;;;;21.50;15.10;;;12.50;36.00;;;;;;5034052;28;20202;-57
2022/03/09 11:29:34;;;;;;;12.30;8.50;;;12.60;36.10;;;;;;5032568;28;20468;-57
2022/03/09 11:32:02;;;;;;;7.57;6.77;;;12.70;36.00;;;;;;5033233;28;20886;-58
2022/03/09 11:34:38;;;;;;;7.50;6.80;;;12.80;35.50;;;;;;5033413;28;20477;-59
2022/03/09 11:37:07;;;;;;;9.43;6.97;;;12.80;35.60;;;;;;5033288;28;20994;-59
2022/03/09 11:39:35;;;;;;;6.80;5.87;;;12.90;35.90;;;;;;5033568;28;20816;-58
2022/03/09 11:42:34;;;;;;;7.57;6.33;;;12.90;36.00;;;;;;5032898;28;20449;-58
2022/03/09 11:45:37;;;;;;;9.60;7.30;;;12.90;36.10;;;;;;5032797;28;20487;-58
2022/03/09 11:48:10;;;;;;;8.73;7.00;;;12.90;36.20;;;;;;5032795;28;20453;-58
2022/03/09 11:51:12;;;;;;;8.10;7.30;;;13.00;36.30;;;;;;5033066;28;20489;-59
2022/03/09 11:53:43;;;;;;;8.30;6.37;;;13.00;35.90;;;;;;5033263;28;20523;-58
2022/03/09 11:56:31;;;;;;;10.90;6.80;;;12.90;35.30;;;;;;5032842;28;20445;-55
2022/03/09 11:59:19;;;;;;;21.67;18.07;;;12.90;35.40;;;;;;5032822;28;20449;-57
2022/03/09 12:02:26;;;;;;;16.73;13.67;;;13.00;35.50;;;;;;5032802;28;20445;-58
2022/03/09 12:05:00;;;;;;;20.83;15.37;;;13.10;35.50;;;;;;5033192;28;20437;-60
2022/03/09 12:07:50;;;;;;;9.93;6.90;;;13.20;35.50;;;;;;5033186;28;20807;-58
2022/03/09 12:10:18;;;;;;;10.63;7.40;;;13.20;35.70;;;;;;5032776;28;20989;-58
2022/03/09 12:13:15;;;;;;;11.87;7.90;;;13.20;35.70;;;;;;5032718;28;20516;-58
2022/03/09 12:16:14;;;;;;;7.93;7.13;;;13.30;35.70;;;;;;5033440;28;20475;-58
2022/03/09 12:18:44;;;;;;;9.90;7.70;;;13.30;35.60;;;;;;5033213;28;20485;-58
2022/03/09 12:21:15;;;;;;;9.97;7.47;;;13.20;35.60;;;;;;5033586;28;20445;-59
2022/03/09 12:24:33;;;;;;;7.20;6.50;;;13.20;35.70;;;;;;5032892;28;20421;-59
2022/03/09 12:27:00;;;;;;;7.20;6.27;;;13.30;35.70;;;;;;4999515;28;20451;-59
2022/03/09 12:29:42;;;;;;;10.20;7.70;;;13.40;35.70;;;;;;5033420;28;20479;-59
2022/03/09 12:32:13;;;;;;;8.13;7.20;;;13.50;35.60;;;;;;5036719;28;20457;-59
2022/03/09 12:34:42;;;;;;;9.70;7.17;;;13.50;35.50;;;;;;5036423;28;20443;-57
2022/03/09 12:37:13;;;;;;;7.93;7.23;;;13.60;35.30;;;;;;5036084;28;20445;-59
2022/03/09 12:39:47;;;;;;;11.10;8.40;;;13.70;35.30;;;;;;5036457;28;20429;-59
2022/03/09 12:42:17;;;;;;;8.50;7.60;;;13.70;34.80;;;;;;5036594;28;20456;-58
2022/03/09 12:44:44;;;;;;;9.80;7.83;;;13.60;34.80;;;;;;5036649;28;20837;-59
2022/03/09 12:47:11;;;;;;;9.40;8.40;;;13.50;34.70;;;;;;5036060;28;20891;-60
2022/03/09 12:49:40;;;;;;;10.77;7.53;;;13.50;34.70;;;;;;5036005;28;20457;-60
2022/03/09 12:52:11;;;;;;;7.33;6.53;;;13.60;34.30;;;;;;5036516;28;20444;-60
2022/03/09 12:54:40;;;;;;;8.03;6.73;;;13.70;34.10;;;;;;5036582;28;20483;-59
2022/03/09 12:57:13;;;;;;;9.80;6.67;;;13.70;33.20;;;;;;5036054;28;20460;-59
2022/03/09 12:59:42;;;;;;;8.63;7.17;;;13.60;32.40;;;;;;5036202;28;20456;-59
2022/03/09 13:02:09;;;;;;;8.20;6.77;;;13.60;32.10;;;;;;5036404;28;20543;-57
2022/03/09 13:04:37;;;;;;;8.87;7.20;;;13.60;32.20;;;;;;5035957;28;20540;-59
2022/03/09 13:07:15;;;;;;;7.97;7.10;;;13.70;32.90;;;;;;5035772;28;20952;-57